YAB weather

Arctic Bay Airport
Arctic Bay, Nunavut, Canada

Public forecast

Using degrees Celsius for public forecast. Weather courtesy of forecast.io.

METAR (pilot weather report)

Retrieved 2019/08/20 15:00 UTC (55 minutes ago):

CYAB 201500Z 31009KT 30SM FEW009 FEW016 FEW100 05/01 A3014 RMK SC1SC1AC1 SC TR AC TR SLP208

TAF (pilot weather forecast)

Retrieved 2019/08/20 13:00 UTC (3 hours ago):

TAF CYAB 201238Z 2013/2020 VRB03KT P6SM FEW008 SCT020 BECMG 2013/2015 31010KT RMK NXT FCST WILL BE ISSUED AT 211245Z